sensor_id;sensor_type;location;lat;lon;timestamp;P1;durP1;ratioP1;P2;durP2;ratioP2
5491;SDS011;2768;53.540;10.224;2023-03-14T00:02:04;3.27;;;2.63;;
5491;SDS011;2768;53.540;10.224;2023-03-14T00:07:57;3.80;;;2.40;;
5491;SDS011;2768;53.540;10.224;2023-03-14T00:13:51;2.77;;;2.17;;
5491;SDS011;2768;53.540;10.224;2023-03-14T00:19:46;3.37;;;2.50;;
5491;SDS011;2768;53.540;10.224;2023-03-14T00:25:43;3.63;;;2.63;;
5491;SDS011;2768;53.540;10.224;2023-03-14T00:31:37;8.00;;;2.70;;
5491;SDS011;2768;53.540;10.224;2023-03-14T00:37:34;8.80;;;2.50;;
5491;SDS011;2768;53.540;10.224;2023-03-14T00:43:29;4.83;;;2.40;;
5491;SDS011;2768;53.540;10.224;2023-03-14T00:49:23;5.43;;;2.37;;
5491;SDS011;2768;53.540;10.224;2023-03-14T00:55:17;3.10;;;2.30;;
5491;SDS011;2768;53.540;10.224;2023-03-14T01:01:12;3.53;;;2.57;;
5491;SDS011;2768;53.540;10.224;2023-03-14T01:07:07;3.23;;;2.20;;
5491;SDS011;2768;53.540;10.224;2023-03-14T01:13:04;4.30;;;2.47;;
5491;SDS011;2768;53.540;10.224;2023-03-14T01:18:59;4.70;;;2.30;;
5491;SDS011;2768;53.540;10.224;2023-03-14T01:24:52;4.30;;;3.53;;
5491;SDS011;2768;53.540;10.224;2023-03-14T01:30:47;6.70;;;2.40;;
5491;SDS011;2768;53.540;10.224;2023-03-14T01:36:40;3.30;;;2.17;;
5491;SDS011;2768;53.540;10.224;2023-03-14T01:42:34;6.33;;;2.30;;
5491;SDS011;2768;53.540;10.224;2023-03-14T01:48:31;5.67;;;2.60;;
5491;SDS011;2768;53.540;10.224;2023-03-14T01:54:28;8.90;;;2.80;;
5491;SDS011;2768;53.540;10.224;2023-03-14T02:00:27;6.73;;;2.57;;
5491;SDS011;2768;53.540;10.224;2023-03-14T02:06:22;4.30;;;2.27;;
5491;SDS011;2768;53.540;10.224;2023-03-14T02:12:22;3.63;;;2.40;;
5491;SDS011;2768;53.540;10.224;2023-03-14T02:18:38;7.50;;;2.60;;
5491;SDS011;2768;53.540;10.224;2023-03-14T02:24:54;4.83;;;2.10;;
5491;SDS011;2768;53.540;10.224;2023-03-14T02:30:57;8.60;;;2.73;;
5491;SDS011;2768;53.540;10.224;2023-03-14T02:36:50;5.97;;;2.23;;
5491;SDS011;2768;53.540;10.224;2023-03-14T02:42:45;6.20;;;2.33;;
5491;SDS011;2768;53.540;10.224;2023-03-14T02:48:41;7.03;;;2.37;;
5491;SDS011;2768;53.540;10.224;2023-03-14T02:54:39;5.80;;;2.40;;
5491;SDS011;2768;53.540;10.224;2023-03-14T03:00:33;4.73;;;2.17;;
5491;SDS011;2768;53.540;10.224;2023-03-14T03:06:30;5.17;;;2.73;;
5491;SDS011;2768;53.540;10.224;2023-03-14T03:12:24;6.07;;;2.90;;
5491;SDS011;2768;53.540;10.224;2023-03-14T03:18:18;7.30;;;2.80;;
5491;SDS011;2768;53.540;10.224;2023-03-14T03:24:13;7.93;;;2.70;;
5491;SDS011;2768;53.540;10.224;2023-03-14T03:30:08;2.27;;;2.00;;
5491;SDS011;2768;53.540;10.224;2023-03-14T03:36:03;7.00;;;2.20;;
5491;SDS011;2768;53.540;10.224;2023-03-14T03:42:01;2.73;;;2.30;;
5491;SDS011;2768;53.540;10.224;2023-03-14T03:47:55;5.77;;;2.20;;
5491;SDS011;2768;53.540;10.224;2023-03-14T03:53:49;6.50;;;2.40;;
5491;SDS011;2768;53.540;10.224;2023-03-14T03:59:51;4.57;;;2.20;;
5491;SDS011;2768;53.540;10.224;2023-03-14T04:05:45;4.30;;;2.40;;
5491;SDS011;2768;53.540;10.224;2023-03-14T04:11:38;5.07;;;2.33;;
5491;SDS011;2768;53.540;10.224;2023-03-14T04:17:54;4.73;;;3.03;;
5491;SDS011;2768;53.540;10.224;2023-03-14T04:23:49;7.97;;;2.80;;
5491;SDS011;2768;53.540;10.224;2023-03-14T04:29:44;5.97;;;3.27;;
5491;SDS011;2768;53.540;10.224;2023-03-14T04:35:41;10.27;;;3.30;;
5491;SDS011;2768;53.540;10.224;2023-03-14T04:41:37;4.07;;;2.40;;
5491;SDS011;2768;53.540;10.224;2023-03-14T04:47:34;7.30;;;2.80;;
5491;SDS011;2768;53.540;10.224;2023-03-14T04:53:29;7.80;;;3.50;;
5491;SDS011;2768;53.540;10.224;2023-03-14T04:59:25;4.10;;;2.57;;
5491;SDS011;2768;53.540;10.224;2023-03-14T05:05:25;6.70;;;2.97;;
5491;SDS011;2768;53.540;10.224;2023-03-14T05:11:32;7.97;;;3.17;;
5491;SDS011;2768;53.540;10.224;2023-03-14T05:17:25;4.77;;;2.70;;
5491;SDS011;2768;53.540;10.224;2023-03-14T05:23:36;6.70;;;2.43;;
5491;SDS011;2768;53.540;10.224;2023-03-14T05:29:58;5.03;;;2.47;;
5491;SDS011;2768;53.540;10.224;2023-03-14T05:36:10;4.77;;;2.50;;
5491;SDS011;2768;53.540;10.224;2023-03-14T05:42:27;4.30;;;2.63;;
5491;SDS011;2768;53.540;10.224;2023-03-14T05:48:41;3.70;;;2.30;;
5491;SDS011;2768;53.540;10.224;2023-03-14T05:54:58;6.80;;;3.20;;
5491;SDS011;2768;53.540;10.224;2023-03-14T06:01:09;2.83;;;2.57;;
5491;SDS011;2768;53.540;10.224;2023-03-14T06:07:19;4.23;;;2.77;;
5491;SDS011;2768;53.540;10.224;2023-03-14T06:13:13;3.10;;;2.50;;
5491;SDS011;2768;53.540;10.224;2023-03-14T06:19:07;3.57;;;2.60;;
5491;SDS011;2768;53.540;10.224;2023-03-14T06:25:03;4.20;;;2.20;;
5491;SDS011;2768;53.540;10.224;2023-03-14T06:30:58;5.53;;;2.80;;
5491;SDS011;2768;53.540;10.224;2023-03-14T06:36:58;4.87;;;2.10;;
5491;SDS011;2768;53.540;10.224;2023-03-14T06:42:53;5.43;;;2.43;;
5491;SDS011;2768;53.540;10.224;2023-03-14T06:48:48;4.60;;;2.47;;
5491;SDS011;2768;53.540;10.224;2023-03-14T06:54:41;5.03;;;2.37;;
5491;SDS011;2768;53.540;10.224;2023-03-14T07:00:36;2.70;;;2.43;;
5491;SDS011;2768;53.540;10.224;2023-03-14T07:06:29;5.17;;;2.60;;
5491;SDS011;2768;53.540;10.224;2023-03-14T07:12:22;5.73;;;2.57;;
5491;SDS011;2768;53.540;10.224;2023-03-14T07:18:19;7.20;;;1.87;;
5491;SDS011;2768;53.540;10.224;2023-03-14T07:24:13;7.37;;;1.90;;
5491;SDS011;2768;53.540;10.224;2023-03-14T07:30:07;4.00;;;2.10;;
5491;SDS011;2768;53.540;10.224;2023-03-14T07:36:02;2.73;;;1.87;;
5491;SDS011;2768;53.540;10.224;2023-03-14T07:41:56;6.87;;;2.03;;
5491;SDS011;2768;53.540;10.224;2023-03-14T07:48:09;3.80;;;1.73;;
5491;SDS011;2768;53.540;10.224;2023-03-14T07:54:03;3.27;;;1.47;;
5491;SDS011;2768;53.540;10.224;2023-03-14T07:59:57;3.60;;;1.40;;
5491;SDS011;2768;53.540;10.224;2023-03-14T08:05:51;1.57;;;1.13;;
5491;SDS011;2768;53.540;10.224;2023-03-14T08:11:46;5.60;;;2.00;;
5491;SDS011;2768;53.540;10.224;2023-03-14T08:17:40;1.60;;;1.50;;
5491;SDS011;2768;53.540;10.224;2023-03-14T08:23:33;3.17;;;1.87;;
5491;SDS011;2768;53.540;10.224;2023-03-14T08:29:28;2.73;;;2.00;;
5491;SDS011;2768;53.540;10.224;2023-03-14T08:35:21;8.77;;;2.67;;
5491;SDS011;2768;53.540;10.224;2023-03-14T08:41:17;2.97;;;2.00;;
5491;SDS011;2768;53.540;10.224;2023-03-14T08:47:12;3.57;;;2.40;;
5491;SDS011;2768;53.540;10.224;2023-03-14T08:53:06;6.23;;;3.60;;
5491;SDS011;2768;53.540;10.224;2023-03-14T08:59:00;4.67;;;3.20;;
5491;SDS011;2768;53.540;10.224;2023-03-14T09:04:55;6.43;;;3.60;;
5491;SDS011;2768;53.540;10.224;2023-03-14T09:10:49;7.80;;;3.97;;
5491;SDS011;2768;53.540;10.224;2023-03-14T09:16:42;5.67;;;4.20;;
5491;SDS011;2768;53.540;10.224;2023-03-14T09:22:37;5.93;;;3.53;;
5491;SDS011;2768;53.540;10.224;2023-03-14T09:28:30;13.57;;;4.67;;
5491;SDS011;2768;53.540;10.224;2023-03-14T09:34:23;8.13;;;3.60;;
5491;SDS011;2768;53.540;10.224;2023-03-14T09:40:19;8.20;;;3.70;;
5491;SDS011;2768;53.540;10.224;2023-03-14T09:46:12;6.00;;;3.50;;
5491;SDS011;2768;53.540;10.224;2023-03-14T09:52:10;4.37;;;3.30;;
5491;SDS011;2768;53.540;10.224;2023-03-14T09:58:10;6.40;;;3.70;;
5491;SDS011;2768;53.540;10.224;2023-03-14T10:04:06;5.20;;;3.83;;
5491;SDS011;2768;53.540;10.224;2023-03-14T10:10:08;5.93;;;2.90;;
5491;SDS011;2768;53.540;10.224;2023-03-14T10:16:05;4.53;;;2.47;;
5491;SDS011;2768;53.540;10.224;2023-03-14T10:22:00;1.63;;;1.10;;
5491;SDS011;2768;53.540;10.224;2023-03-14T10:27:55;0.77;;;0.77;;
5491;SDS011;2768;53.540;10.224;2023-03-14T10:33:58;1.00;;;0.90;;
5491;SDS011;2768;53.540;10.224;2023-03-14T10:39:53;2.50;;;1.00;;
5491;SDS011;2768;53.540;10.224;2023-03-14T10:45:51;1.20;;;0.80;;
5491;SDS011;2768;53.540;10.224;2023-03-14T10:51:50;1.37;;;1.00;;
5491;SDS011;2768;53.540;10.224;2023-03-14T10:57:43;1.00;;;0.80;;
5491;SDS011;2768;53.540;10.224;2023-03-14T11:03:37;0.60;;;0.60;;
5491;SDS011;2768;53.540;10.224;2023-03-14T11:09:38;1.00;;;0.73;;
5491;SDS011;2768;53.540;10.224;2023-03-14T11:15:36;2.03;;;0.80;;
5491;SDS011;2768;53.540;10.224;2023-03-14T11:21:35;0.83;;;0.70;;
5491;SDS011;2768;53.540;10.224;2023-03-14T11:27:36;1.33;;;0.83;;
5491;SDS011;2768;53.540;10.224;2023-03-14T11:33:35;1.20;;;0.90;;
5491;SDS011;2768;53.540;10.224;2023-03-14T11:39:34;1.00;;;0.70;;
5491;SDS011;2768;53.540;10.224;2023-03-14T11:45:34;1.37;;;0.60;;
5491;SDS011;2768;53.540;10.224;2023-03-14T11:51:31;1.00;;;0.67;;
5491;SDS011;2768;53.540;10.224;2023-03-14T11:57:28;2.50;;;0.77;;
5491;SDS011;2768;53.540;10.224;2023-03-14T12:03:26;1.20;;;0.87;;
5491;SDS011;2768;53.540;10.224;2023-03-14T12:09:27;3.03;;;1.07;;
5491;SDS011;2768;53.540;10.224;2023-03-14T12:15:21;3.80;;;0.87;;
5491;SDS011;2768;53.540;10.224;2023-03-14T12:21:17;3.50;;;1.20;;
5491;SDS011;2768;53.540;10.224;2023-03-14T12:27:12;2.57;;;1.00;;
5491;SDS011;2768;53.540;10.224;2023-03-14T12:33:31;7.03;;;1.33;;
5491;SDS011;2768;53.540;10.224;2023-03-14T12:39:29;5.60;;;1.30;;
5491;SDS011;2768;53.540;10.224;2023-03-14T12:45:28;5.00;;;1.20;;
5491;SDS011;2768;53.540;10.224;2023-03-14T12:51:29;4.70;;;1.23;;
5491;SDS011;2768;53.540;10.224;2023-03-14T12:57:27;6.20;;;1.90;;
5491;SDS011;2768;53.540;10.224;2023-03-14T13:03:25;8.20;;;1.70;;
5491;SDS011;2768;53.540;10.224;2023-03-14T13:09:47;7.40;;;2.53;;
5491;SDS011;2768;53.540;10.224;2023-03-14T13:15:47;7.30;;;1.70;;
5491;SDS011;2768;53.540;10.224;2023-03-14T13:21:43;6.83;;;1.30;;
5491;SDS011;2768;53.540;10.224;2023-03-14T13:27:37;4.20;;;1.70;;
5491;SDS011;2768;53.540;10.224;2023-03-14T13:33:31;6.37;;;1.60;;
5491;SDS011;2768;53.540;10.224;2023-03-14T13:39:26;9.07;;;2.30;;
5491;SDS011;2768;53.540;10.224;2023-03-14T13:45:23;6.43;;;2.70;;
5491;SDS011;2768;53.540;10.224;2023-03-14T13:51:17;10.50;;;2.70;;
5491;SDS011;2768;53.540;10.224;2023-03-14T13:57:12;8.50;;;2.03;;
5491;SDS011;2768;53.540;10.224;2023-03-14T14:03:08;3.43;;;1.60;;
5491;SDS011;2768;53.540;10.224;2023-03-14T14:09:08;5.90;;;1.47;;
5491;SDS011;2768;53.540;10.224;2023-03-14T14:15:04;5.47;;;1.40;;
5491;SDS011;2768;53.540;10.224;2023-03-14T14:21:01;5.93;;;1.53;;
5491;SDS011;2768;53.540;10.224;2023-03-14T14:26:58;10.03;;;1.73;;
5491;SDS011;2768;53.540;10.224;2023-03-14T14:32:53;7.17;;;1.83;;
5491;SDS011;2768;53.540;10.224;2023-03-14T14:39:09;6.50;;;1.30;;
5491;SDS011;2768;53.540;10.224;2023-03-14T14:45:11;7.07;;;2.20;;
5491;SDS011;2768;53.540;10.224;2023-03-14T14:51:08;5.00;;;1.80;;
5491;SDS011;2768;53.540;10.224;2023-03-14T14:57:03;6.70;;;1.93;;
5491;SDS011;2768;53.540;10.224;2023-03-14T15:02:58;5.53;;;1.20;;
5491;SDS011;2768;53.540;10.224;2023-03-14T15:08:52;3.93;;;1.50;;
5491;SDS011;2768;53.540;10.224;2023-03-14T15:14:47;4.87;;;1.70;;
5491;SDS011;2768;53.540;10.224;2023-03-14T15:20:40;3.10;;;1.80;;
5491;SDS011;2768;53.540;10.224;2023-03-14T15:26:34;3.67;;;1.37;;
5491;SDS011;2768;53.540;10.224;2023-03-14T15:32:28;7.87;;;1.90;;
5491;SDS011;2768;53.540;10.224;2023-03-14T15:38:23;6.93;;;1.30;;
5491;SDS011;2768;53.540;10.224;2023-03-14T15:44:16;5.90;;;1.67;;
5491;SDS011;2768;53.540;10.224;2023-03-14T15:50:11;6.07;;;2.37;;
5491;SDS011;2768;53.540;10.224;2023-03-14T15:56:05;5.77;;;1.80;;
5491;SDS011;2768;53.540;10.224;2023-03-14T16:02:02;7.50;;;1.63;;
5491;SDS011;2768;53.540;10.224;2023-03-14T16:07:57;8.43;;;1.67;;
5491;SDS011;2768;53.540;10.224;2023-03-14T16:13:50;7.27;;;2.00;;
5491;SDS011;2768;53.540;10.224;2023-03-14T16:19:44;5.27;;;1.40;;
5491;SDS011;2768;53.540;10.224;2023-03-14T16:25:38;8.80;;;1.80;;
5491;SDS011;2768;53.540;10.224;2023-03-14T16:31:32;5.80;;;1.80;;
5491;SDS011;2768;53.540;10.224;2023-03-14T16:37:25;4.43;;;2.03;;
5491;SDS011;2768;53.540;10.224;2023-03-14T16:43:20;4.77;;;1.33;;
5491;SDS011;2768;53.540;10.224;2023-03-14T16:49:13;8.43;;;2.17;;
5491;SDS011;2768;53.540;10.224;2023-03-14T16:55:07;7.60;;;2.30;;
5491;SDS011;2768;53.540;10.224;2023-03-14T17:01:04;6.23;;;2.00;;
5491;SDS011;2768;53.540;10.224;2023-03-14T17:07:01;4.60;;;2.00;;
5491;SDS011;2768;53.540;10.224;2023-03-14T17:12:54;4.70;;;2.00;;
5491;SDS011;2768;53.540;10.224;2023-03-14T17:18:48;5.80;;;1.97;;
5491;SDS011;2768;53.540;10.224;2023-03-14T17:24:41;7.67;;;1.50;;
5491;SDS011;2768;53.540;10.224;2023-03-14T17:30:35;6.90;;;2.57;;
5491;SDS011;2768;53.540;10.224;2023-03-14T17:36:30;9.90;;;2.67;;
5491;SDS011;2768;53.540;10.224;2023-03-14T17:42:23;6.80;;;2.77;;
5491;SDS011;2768;53.540;10.224;2023-03-14T17:48:16;9.53;;;2.57;;
5491;SDS011;2768;53.540;10.224;2023-03-14T17:54:10;7.13;;;1.87;;
5491;SDS011;2768;53.540;10.224;2023-03-14T18:00:04;8.87;;;2.13;;
5491;SDS011;2768;53.540;10.224;2023-03-14T18:06:02;8.70;;;2.10;;
5491;SDS011;2768;53.540;10.224;2023-03-14T18:11:57;5.13;;;2.00;;
5491;SDS011;2768;53.540;10.224;2023-03-14T18:17:59;6.90;;;2.03;;
5491;SDS011;2768;53.540;10.224;2023-03-14T18:23:53;4.70;;;1.90;;
5491;SDS011;2768;53.540;10.224;2023-03-14T18:29:48;6.27;;;2.23;;
5491;SDS011;2768;53.540;10.224;2023-03-14T18:35:41;4.00;;;2.20;;
5491;SDS011;2768;53.540;10.224;2023-03-14T18:41:35;8.33;;;1.83;;
5491;SDS011;2768;53.540;10.224;2023-03-14T18:47:32;8.03;;;2.17;;
5491;SDS011;2768;53.540;10.224;2023-03-14T18:53:27;4.07;;;1.73;;
5491;SDS011;2768;53.540;10.224;2023-03-14T18:59:22;5.23;;;2.30;;
5491;SDS011;2768;53.540;10.224;2023-03-14T19:05:17;7.70;;;1.50;;
5491;SDS011;2768;53.540;10.224;2023-03-14T19:11:10;4.80;;;2.27;;
5491;SDS011;2768;53.540;10.224;2023-03-14T19:17:04;8.73;;;2.00;;
5491;SDS011;2768;53.540;10.224;2023-03-14T19:22:59;8.60;;;2.30;;
5491;SDS011;2768;53.540;10.224;2023-03-14T19:28:52;6.27;;;1.97;;
5491;SDS011;2768;53.540;10.224;2023-03-14T19:34:45;5.00;;;1.90;;
5491;SDS011;2768;53.540;10.224;2023-03-14T19:40:40;3.80;;;1.47;;
5491;SDS011;2768;53.540;10.224;2023-03-14T19:46:35;5.90;;;1.57;;
5491;SDS011;2768;53.540;10.224;2023-03-14T19:52:28;6.97;;;2.37;;
5491;SDS011;2768;53.540;10.224;2023-03-14T19:58:23;8.43;;;2.17;;
5491;SDS011;2768;53.540;10.224;2023-03-14T20:04:16;11.37;;;2.00;;
5491;SDS011;2768;53.540;10.224;2023-03-14T20:10:10;8.13;;;2.40;;
5491;SDS011;2768;53.540;10.224;2023-03-14T20:16:07;6.20;;;1.97;;
5491;SDS011;2768;53.540;10.224;2023-03-14T20:22:02;5.70;;;2.20;;
5491;SDS011;2768;53.540;10.224;2023-03-14T20:27:55;8.03;;;1.90;;
5491;SDS011;2768;53.540;10.224;2023-03-14T20:33:50;4.83;;;1.63;;
5491;SDS011;2768;53.540;10.224;2023-03-14T20:39:43;11.27;;;1.90;;
5491;SDS011;2768;53.540;10.224;2023-03-14T20:45:36;4.50;;;1.93;;
5491;SDS011;2768;53.540;10.224;2023-03-14T20:51:31;3.47;;;1.53;;
5491;SDS011;2768;53.540;10.224;2023-03-14T20:57:24;6.20;;;1.90;;
5491;SDS011;2768;53.540;10.224;2023-03-14T21:03:18;3.30;;;1.60;;
5491;SDS011;2768;53.540;10.224;2023-03-14T21:09:14;3.80;;;1.63;;
5491;SDS011;2768;53.540;10.224;2023-03-14T21:15:08;3.43;;;2.27;;
5491;SDS011;2768;53.540;10.224;2023-03-14T21:21:05;5.90;;;2.30;;
5491;SDS011;2768;53.540;10.224;2023-03-14T21:27:00;8.70;;;2.17;;
5491;SDS011;2768;53.540;10.224;2023-03-14T21:32:53;2.83;;;1.40;;
5491;SDS011;2768;53.540;10.224;2023-03-14T21:38:46;2.80;;;1.40;;
5491;SDS011;2768;53.540;10.224;2023-03-14T21:44:41;5.30;;;1.90;;
5491;SDS011;2768;53.540;10.224;2023-03-14T21:50:39;4.30;;;1.90;;
5491;SDS011;2768;53.540;10.224;2023-03-14T21:56:32;3.10;;;1.60;;
5491;SDS011;2768;53.540;10.224;2023-03-14T22:02:26;6.57;;;1.50;;
5491;SDS011;2768;53.540;10.224;2023-03-14T22:08:20;5.40;;;1.90;;
5491;SDS011;2768;53.540;10.224;2023-03-14T22:14:13;2.60;;;1.63;;
5491;SDS011;2768;53.540;10.224;2023-03-14T22:20:08;4.57;;;1.70;;
5491;SDS011;2768;53.540;10.224;2023-03-14T22:26:04;6.50;;;1.80;;
5491;SDS011;2768;53.540;10.224;2023-03-14T22:31:57;3.93;;;1.40;;
5491;SDS011;2768;53.540;10.224;2023-03-14T22:37:51;4.53;;;1.73;;
5491;SDS011;2768;53.540;10.224;2023-03-14T22:43:45;6.00;;;1.80;;
5491;SDS011;2768;53.540;10.224;2023-03-14T22:49:40;9.10;;;1.63;;
5491;SDS011;2768;53.540;10.224;2023-03-14T22:55:35;3.13;;;1.50;;
5491;SDS011;2768;53.540;10.224;2023-03-14T23:01:27;4.33;;;1.80;;
5491;SDS011;2768;53.540;10.224;2023-03-14T23:07:21;4.90;;;1.63;;
5491;SDS011;2768;53.540;10.224;2023-03-14T23:13:15;3.90;;;1.50;;
5491;SDS011;2768;53.540;10.224;2023-03-14T23:19:09;4.60;;;1.57;;
5491;SDS011;2768;53.540;10.224;2023-03-14T23:25:02;4.37;;;1.30;;
5491;SDS011;2768;53.540;10.224;2023-03-14T23:30:57;4.70;;;1.60;;
5491;SDS011;2768;53.540;10.224;2023-03-14T23:36:51;4.57;;;1.40;;
5491;SDS011;2768;53.540;10.224;2023-03-14T23:42:44;4.20;;;1.50;;
5491;SDS011;2768;53.540;10.224;2023-03-14T23:48:41;2.50;;;1.87;;
5491;SDS011;2768;53.540;10.224;2023-03-14T23:54:37;2.50;;;1.40;;
